KTVI/TVI METAR and TAF weather

Enter ICAO airport designator
Station Type Date Time Source
KTVI METAR 2022/11/26 08:35 UTC NOAA

KTVI 260835Z AUTO 07006KT 3/4SM BR OVC003 15/14 A3009 RMK AO2


Station Type Date Time Source
KTVI Decoded METAR 2022/11/26 08:35 UTC NOAA

Thomasville, GA, United States (KTVI) 30-54-06N 083-52-53W
Nov 26, 2022 - 03:35 AM EST / 2022.11.26 0835 UTC
Wind: from the ENE (070 degrees) at 7 MPH (6 KT):0
Visibility: 3/4 mile(s):0
Sky conditions: overcast
Weather: mist
Temperature: 59 F (15 C)
Dew Point: 57 F (14 C)
Relative Humidity: 93%
Pressure (altimeter): 30.09 in. Hg (1018 hPa)
ob: KTVI 260835Z AUTO 07006KT 3/4SM BR OVC003 15/14 A3009 RMK AO2
cycle: 8

Station Type Date Time Source
KTVI TAF UTC NOAA

Error!

Example: see airport list